Time,TemperatureF,DewpointF,PressureIn,WindDirection,WindDirectionDegrees,WindSpeedMPH,WindSpeedGustMPH,Humidity,HourlyPrecipIn,Conditions,Clouds,dailyrainin,SoftwareType,DateUTC
2013-08-19 00:03:00,79.7,70.3,29.92,South,176,0.0,1.0,73,0.00,,,0.00,meteohub,2013-08-19 05:03:00,
2013-08-19 00:08:00,79.7,70.7,29.92,South,176,1.0,1.0,74,0.00,,,0.00,meteohub,2013-08-19 05:08:00,
2013-08-19 00:13:00,79.5,70.5,29.92,South,176,1.0,1.0,74,0.00,,,0.00,meteohub,2013-08-19 05:13:00,
2013-08-19 00:19:00,79.3,70.3,29.92,South,176,1.0,1.0,74,0.00,,,0.00,meteohub,2013-08-19 05:19:00,
2013-08-19 00:24:00,79.3,70.7,29.92,South,176,1.0,1.0,75,0.00,,,0.00,meteohub,2013-08-19 05:24:00,
2013-08-19 00:29:00,79.3,70.7,29.92,South,176,0.0,2.0,75,0.00,,,0.00,meteohub,2013-08-19 05:29:00,
2013-08-19 00:34:00,79.3,70.7,29.92,South,176,0.0,2.0,75,0.00,,,0.00,meteohub,2013-08-19 05:34:00,
2013-08-19 00:39:00,79.3,71.1,29.92,South,176,0.0,2.0,76,0.00,,,0.00,meteohub,2013-08-19 05:39:00,
2013-08-19 00:44:00,79.2,70.9,29.92,South,176,0.0,2.0,76,0.00,,,0.00,meteohub,2013-08-19 05:44:00,
2013-08-19 00:49:00,79.0,70.7,29.92,South,176,0.0,1.0,76,0.00,,,0.00,meteohub,2013-08-19 05:49:00,
2013-08-19 00:55:00,79.0,70.7,29.92,South,176,0.0,1.0,76,0.00,,,0.00,meteohub,2013-08-19 05:55:00,
2013-08-19 01:00:00,79.0,70.7,29.92,WSW,250,1.0,1.0,76,0.00,,,0.00,meteohub,2013-08-19 06:00:00,
2013-08-19 01:05:00,79.2,70.9,29.91,WSW,250,0.0,1.0,76,0.00,,,0.00,meteohub,2013-08-19 06:05:00,
2013-08-19 01:10:00,79.2,70.5,29.91,WSW,250,0.0,2.0,75,0.00,,,0.00,meteohub,2013-08-19 06:10:00,
2013-08-19 01:15:00,79.0,70.7,29.91,WSW,249,0.0,1.0,76,0.00,,,0.00,meteohub,2013-08-19 06:15:00,
2013-08-19 01:20:00,78.8,70.5,29.91,SW,236,0.0,1.0,76,0.00,,,0.00,meteohub,2013-08-19 06:20:00,
2013-08-19 01:25:00,78.6,70.9,29.91,SW,236,0.0,1.0,77,0.00,,,0.00,meteohub,2013-08-19 06:25:00,
2013-08-19 01:30:00,78.4,70.7,29.91,SW,236,1.0,1.0,77,0.00,,,0.00,meteohub,2013-08-19 06:30:00,
2013-08-19 01:36:00,78.4,70.7,29.91,SW,229,1.0,1.0,77,0.00,,,0.00,meteohub,2013-08-19 06:36:00,
2013-08-19 01:41:00,78.4,70.7,29.92,SW,229,1.0,2.0,77,0.00,,,0.00,meteohub,2013-08-19 06:41:00,
2013-08-19 01:46:00,78.3,70.5,29.91,SW,229,1.0,2.0,77,0.00,,,0.00,meteohub,2013-08-19 06:46:00,
2013-08-19 01:51:00,78.3,70.9,29.91,SW,229,0.0,1.0,78,0.00,,,0.00,meteohub,2013-08-19 06:51:00,
2013-08-19 01:56:00,78.3,70.9,29.91,East,98,0.0,1.0,78,0.00,,,0.00,meteohub,2013-08-19 06:56:00,
2013-08-19 02:01:00,78.3,71.2,29.91,East,98,0.0,1.0,79,0.00,,,0.00,meteohub,2013-08-19 07:01:00,
2013-08-19 02:06:00,78.3,71.2,29.91,SE,136,2.0,2.0,79,0.00,,,0.00,meteohub,2013-08-19 07:06:00,
2013-08-19 02:11:00,78.1,71.1,29.91,SE,134,1.0,2.0,79,0.00,,,0.00,meteohub,2013-08-19 07:11:00,
2013-08-19 02:16:00,78.1,70.7,29.91,SE,127,0.0,2.0,78,0.00,,,0.00,meteohub,2013-08-19 07:16:00,
2013-08-19 02:21:00,77.9,70.5,29.91,SE,127,0.0,2.0,78,0.00,,,0.00,meteohub,2013-08-19 07:21:00,
2013-08-19 02:27:00,77.7,70.7,29.91,SE,127,1.0,1.0,79,0.00,,,0.00,meteohub,2013-08-19 07:27:00,
2013-08-19 02:32:00,77.7,70.7,29.91,SE,133,0.0,1.0,79,0.00,,,0.00,meteohub,2013-08-19 07:32:00,
2013-08-19 02:37:00,77.5,70.5,29.91,SE,133,0.0,1.0,79,0.00,,,0.00,meteohub,2013-08-19 07:37:00,
2013-08-19 02:42:00,77.2,70.2,29.91,SE,132,0.0,1.0,79,0.00,,,0.00,meteohub,2013-08-19 07:42:00,
2013-08-19 02:47:00,76.8,70.2,29.91,SE,133,0.0,0.0,80,0.00,,,0.00,meteohub,2013-08-19 07:47:00,
2013-08-19 02:52:00,76.8,70.5,29.91,SE,132,0.0,0.0,81,0.00,,,0.00,meteohub,2013-08-19 07:52:00,
2013-08-19 02:57:00,76.6,70.3,29.91,SE,133,0.0,0.0,81,0.00,,,0.00,meteohub,2013-08-19 07:57:00,
2013-08-19 03:02:00,76.6,70.3,29.91,SE,132,0.0,0.0,81,0.00,,,0.00,meteohub,2013-08-19 08:02:00,
2013-08-19 03:07:00,76.5,70.2,29.91,SE,132,0.0,0.0,81,0.00,,,0.00,meteohub,2013-08-19 08:07:00,
2013-08-19 03:12:00,76.3,70.3,29.91,SE,133,0.0,0.0,82,0.00,,,0.00,meteohub,2013-08-19 08:12:00,
2013-08-19 03:17:00,76.3,70.7,29.91,SE,132,0.0,0.0,83,0.00,,,0.00,meteohub,2013-08-19 08:17:00,
2013-08-19 03:22:00,76.1,70.2,29.91,SE,132,0.0,0.0,82,0.00,,,0.00,meteohub,2013-08-19 08:22:00,
2013-08-19 03:27:00,75.9,70.0,29.91,SE,132,0.0,0.0,82,0.00,,,0.00,meteohub,2013-08-19 08:27:00,
2013-08-19 03:32:00,75.9,70.3,29.91,SE,132,0.0,0.0,83,0.00,,,0.00,meteohub,2013-08-19 08:32:00,
2013-08-19 03:37:00,76.3,70.7,29.91,SE,124,0.0,1.0,83,0.00,,,0.00,meteohub,2013-08-19 08:37:00,
2013-08-19 03:42:00,76.5,70.9,29.91,ESE,121,2.0,2.0,83,0.00,,,0.00,meteohub,2013-08-19 08:42:00,
2013-08-19 03:47:00,76.6,70.7,29.91,ESE,121,1.0,2.0,82,0.00,,,0.00,meteohub,2013-08-19 08:47:00,
2013-08-19 03:52:00,76.6,70.7,29.91,ESE,122,0.0,2.0,82,0.00,,,0.00,meteohub,2013-08-19 08:52:00,
2013-08-19 03:57:00,76.3,70.3,29.90,ESE,121,0.0,2.0,82,0.00,,,0.00,meteohub,2013-08-19 08:57:00,
2013-08-19 04:02:00,75.9,70.3,29.90,ESE,121,0.0,1.0,83,0.00,,,0.00,meteohub,2013-08-19 09:02:00,
2013-08-19 04:07:00,75.4,69.4,29.90,NNE,29,2.0,3.0,82,0.00,,,0.00,meteohub,2013-08-19 09:07:00,
2013-08-19 04:12:00,74.7,69.1,29.90,NNE,26,0.0,3.0,83,0.00,,,0.00,meteohub,2013-08-19 09:12:00,
2013-08-19 04:17:00,74.3,69.1,29.90,NNE,25,1.0,3.0,84,0.00,,,0.00,meteohub,2013-08-19 09:17:00,
2013-08-19 04:22:00,74.1,68.9,29.90,NNE,24,1.0,3.0,84,0.00,,,0.00,meteohub,2013-08-19 09:22:00,
2013-08-19 04:27:00,74.1,69.3,29.90,NNE,23,1.0,2.0,85,0.00,,,0.00,meteohub,2013-08-19 09:27:00,
2013-08-19 04:32:00,74.1,69.3,29.90,NNE,24,2.0,2.0,85,0.00,,,0.00,meteohub,2013-08-19 09:32:00,
2013-08-19 04:37:00,73.9,69.4,29.90,NE,37,2.0,3.0,86,0.00,,,0.00,meteohub,2013-08-19 09:37:00,
2013-08-19 04:42:00,74.1,69.6,29.90,NE,37,2.0,3.0,86,0.00,,,0.00,meteohub,2013-08-19 09:42:00,
2013-08-19 04:47:00,74.1,69.6,29.90,NE,37,0.0,3.0,86,0.00,,,0.00,meteohub,2013-08-19 09:47:00,
2013-08-19 04:52:00,74.1,69.6,29.90,North,0,1.0,3.0,86,0.00,,,0.00,meteohub,2013-08-19 09:52:00,
2013-08-19 04:57:00,73.9,69.4,29.90,North,0,0.0,2.0,86,0.00,,,0.00,meteohub,2013-08-19 09:57:00,
2013-08-19 05:02:00,73.9,69.4,29.90,North,0,0.0,2.0,86,0.00,,,0.00,meteohub,2013-08-19 10:02:00,
2013-08-19 05:07:00,74.1,70.0,29.90,NNE,29,1.0,2.0,87,0.00,,,0.00,meteohub,2013-08-19 10:07:00,
2013-08-19 05:12:00,74.5,70.3,29.90,NNE,29,0.0,2.0,87,0.00,,,0.00,meteohub,2013-08-19 10:12:00,
2013-08-19 05:17:00,74.7,70.5,29.90,ENE,61,2.0,2.0,87,0.00,,,0.00,meteohub,2013-08-19 10:17:00,
2013-08-19 05:22:00,74.5,70.0,29.90,ENE,61,2.0,3.0,86,0.00,,,0.00,meteohub,2013-08-19 10:22:00,
2013-08-19 05:27:00,74.3,69.8,29.90,ENE,60,2.0,3.0,86,0.00,,,0.00,meteohub,2013-08-19 10:27:00,
2013-08-19 05:32:00,74.1,69.6,29.90,ENE,60,1.0,3.0,86,0.00,,,0.00,meteohub,2013-08-19 10:32:00,
2013-08-19 05:37:00,74.1,69.6,29.90,ENE,60,1.0,3.0,86,0.00,,,0.00,meteohub,2013-08-19 10:37:00,
2013-08-19 05:42:00,74.1,69.6,29.90,ENE,58,2.0,3.0,86,0.00,,,0.00,meteohub,2013-08-19 10:42:00,
2013-08-19 05:47:00,74.1,69.6,29.90,NE,47,2.0,3.0,86,0.00,,,0.00,meteohub,2013-08-19 10:47:00,
2013-08-19 05:52:00,74.1,69.6,29.90,NNE,23,2.0,3.0,86,0.00,,,0.00,meteohub,2013-08-19 10:52:00,
2013-08-19 05:57:00,73.9,69.4,29.91,North,11,1.0,3.0,86,0.00,,,0.00,meteohub,2013-08-19 10:57:00,
2013-08-19 06:02:00,73.9,69.4,29.91,NNE,13,2.0,3.0,86,0.00,,,0.00,meteohub,2013-08-19 11:02:00,
2013-08-19 06:07:00,73.8,69.3,29.91,North,5,1.0,3.0,86,0.00,,,0.00,meteohub,2013-08-19 11:07:00,
2013-08-19 06:12:00,73.8,69.3,29.91,North,8,3.0,4.0,86,0.00,,,0.00,meteohub,2013-08-19 11:12:00,
2013-08-19 06:17:00,73.6,69.1,29.91,North,8,3.0,4.0,86,0.00,,,0.00,meteohub,2013-08-19 11:17:00,
2013-08-19 06:22:00,73.6,69.1,29.91,NNE,31,2.0,4.0,86,0.00,,,0.00,meteohub,2013-08-19 11:22:00,
2013-08-19 06:27:00,73.6,69.1,29.91,North,1,3.0,4.0,86,0.00,,,0.00,meteohub,2013-08-19 11:27:00,
2013-08-19 06:32:00,73.4,68.9,29.91,NNE,18,3.0,4.0,86,0.00,,,0.00,meteohub,2013-08-19 11:32:00,
2013-08-19 06:37:00,73.2,68.7,29.92,NNE,15,3.0,4.0,86,0.00,,,0.00,meteohub,2013-08-19 11:37:00,
2013-08-19 06:42:00,73.2,68.7,29.92,NNE,18,2.0,4.0,86,0.00,,,0.00,meteohub,2013-08-19 11:42:00,
2013-08-19 06:47:00,73.0,68.9,29.91,NNE,26,2.0,4.0,87,0.00,,,0.00,meteohub,2013-08-19 11:47:00,
2013-08-19 06:52:00,73.0,68.9,29.92,NNE,24,3.0,4.0,87,0.00,,,0.00,meteohub,2013-08-19 11:52:00,
2013-08-19 06:57:00,73.0,68.9,29.92,North,8,2.0,4.0,87,0.00,,,0.00,meteohub,2013-08-19 11:57:00,
2013-08-19 07:02:00,73.2,69.1,29.92,North,359,2.0,3.0,87,0.00,,,0.00,meteohub,2013-08-19 12:02:00,
2013-08-19 07:07:00,73.2,69.1,29.92,North,353,1.0,3.0,87,0.00,,,0.00,meteohub,2013-08-19 12:07:00,
2013-08-19 07:12:00,73.2,69.1,29.92,NNW,334,2.0,3.0,87,0.00,,,0.00,meteohub,2013-08-19 12:12:00,
2013-08-19 07:17:00,73.2,69.1,29.92,North,349,1.0,3.0,87,0.00,,,0.00,meteohub,2013-08-19 12:17:00,
2013-08-19 07:22:00,73.6,69.4,29.92,NNW,345,1.0,3.0,87,0.00,,,0.00,meteohub,2013-08-19 12:22:00,
2013-08-19 07:27:00,73.8,69.6,29.93,North,355,2.0,3.0,87,0.00,,,0.00,meteohub,2013-08-19 12:27:00,
2013-08-19 07:32:00,74.1,70.0,29.93,North,9,2.0,4.0,87,0.00,,,0.00,meteohub,2013-08-19 12:32:00,
2013-08-19 07:37:00,74.1,69.6,29.94,North,359,2.0,4.0,86,0.00,,,0.00,meteohub,2013-08-19 12:37:00,
2013-08-19 07:42:00,74.5,70.0,29.93,NNE,22,4.0,4.0,86,0.00,,,0.00,meteohub,2013-08-19 12:42:00,
2013-08-19 07:47:00,74.7,70.2,29.94,North,0,3.0,4.0,86,0.00,,,0.00,meteohub,2013-08-19 12:47:00,
2013-08-19 07:52:00,74.8,70.7,29.94,NNE,13,3.0,4.0,87,0.00,,,0.00,meteohub,2013-08-19 12:52:00,
2013-08-19 07:57:00,75.4,70.9,29.94,NNE,12,2.0,4.0,86,0.00,,,0.00,meteohub,2013-08-19 12:57:00,
2013-08-19 08:02:00,75.7,71.2,29.94,NE,34,3.0,4.0,86,0.00,,,0.00,meteohub,2013-08-19 13:02:00,
2013-08-19 08:07:00,75.9,71.4,29.94,North,8,3.0,5.0,86,0.00,,,0.00,meteohub,2013-08-19 13:07:00,
2013-08-19 08:12:00,76.1,71.6,29.94,North,8,4.0,5.0,86,0.00,,,0.00,meteohub,2013-08-19 13:12:00,
2013-08-19 08:17:00,76.5,71.6,29.94,North,11,3.0,5.0,85,0.00,,,0.00,meteohub,2013-08-19 13:17:00,
2013-08-19 08:22:00,76.5,71.6,29.94,NNW,346,4.0,5.0,85,0.00,,,0.00,meteohub,2013-08-19 13:22:00,
2013-08-19 08:27:00,76.6,71.8,29.94,NNE,29,4.0,6.0,85,0.00,,,0.00,meteohub,2013-08-19 13:27:00,
2013-08-19 08:32:00,77.0,72.1,29.94,North,355,2.0,6.0,85,0.00,,,0.00,meteohub,2013-08-19 13:32:00,
2013-08-19 08:37:00,77.4,72.5,29.95,NNW,331,5.0,6.0,85,0.00,,,0.00,meteohub,2013-08-19 13:37:00,
2013-08-19 08:42:00,77.5,72.7,29.95,NNW,339,4.0,6.0,85,0.00,,,0.00,meteohub,2013-08-19 13:42:00,
2013-08-19 08:47:00,77.9,72.7,29.95,NNW,347,2.0,6.0,84,0.00,,,0.00,meteohub,2013-08-19 13:47:00,
2013-08-19 08:52:00,78.4,73.2,29.95,NNW,346,2.0,6.0,84,0.00,,,0.00,meteohub,2013-08-19 13:52:00,
2013-08-19 08:57:00,79.0,73.4,29.95,NNE,12,2.0,6.0,83,0.00,,,0.00,meteohub,2013-08-19 13:57:00,
2013-08-19 09:02:00,79.3,73.4,29.95,NE,34,4.0,7.0,82,0.00,,,0.00,meteohub,2013-08-19 14:02:00,
2013-08-19 09:07:00,79.7,73.8,29.95,North,8,6.0,8.0,82,0.00,,,0.00,meteohub,2013-08-19 14:07:00,
2013-08-19 09:12:00,80.1,73.8,29.96,North,11,6.0,8.0,81,0.00,,,0.00,meteohub,2013-08-19 14:12:00,
2013-08-19 09:17:00,80.6,74.3,29.96,North,349,4.0,8.0,81,0.00,,,0.00,meteohub,2013-08-19 14:17:00,
2013-08-19 09:22:00,81.1,74.3,29.96,NNW,331,3.0,8.0,80,0.00,,,0.00,meteohub,2013-08-19 14:22:00,
2013-08-19 09:27:00,81.7,74.5,29.96,North,8,9.0,9.0,79,0.00,,,0.00,meteohub,2013-08-19 14:27:00,
2013-08-19 09:32:00,82.2,75.0,29.96,NNE,32,5.0,9.0,79,0.00,,,0.00,meteohub,2013-08-19 14:32:00,
2013-08-19 09:37:00,82.9,75.4,29.96,NE,44,2.0,9.0,78,0.00,,,0.00,meteohub,2013-08-19 14:37:00,
2013-08-19 09:42:00,83.5,75.9,29.96,NE,49,6.0,9.0,78,0.00,,,0.00,meteohub,2013-08-19 14:42:00,
2013-08-19 09:47:00,83.5,75.6,29.96,NE,34,4.0,9.0,77,0.00,,,0.00,meteohub,2013-08-19 14:47:00,
2013-08-19 09:53:00,83.7,75.7,29.96,NE,41,3.0,9.0,77,0.00,,,0.00,meteohub,2013-08-19 14:53:00,
2013-08-19 09:58:00,84.4,75.6,29.96,East,86,7.0,9.0,75,0.00,,,0.00,meteohub,2013-08-19 14:58:00,
2013-08-19 10:03:00,84.0,75.2,29.96,NE,54,7.0,12.0,75,0.00,,,0.00,meteohub,2013-08-19 15:03:00,
2013-08-19 10:08:00,84.4,75.2,29.96,NE,49,8.0,12.0,74,0.00,,,0.00,meteohub,2013-08-19 15:08:00,
2013-08-19 10:13:00,84.9,75.2,29.96,NNW,329,3.0,10.0,73,0.00,,,0.00,meteohub,2013-08-19 15:13:00,
2013-08-19 10:18:00,84.9,74.5,29.97,NNE,29,7.0,13.0,71,0.00,,,0.00,meteohub,2013-08-19 15:18:00,
2013-08-19 10:23:00,85.1,74.7,29.97,NE,49,9.0,13.0,71,0.00,,,0.00,meteohub,2013-08-19 15:23:00,
2013-08-19 10:28:00,85.6,74.3,29.97,ESE,102,8.0,12.0,69,0.00,,,0.00,meteohub,2013-08-19 15:28:00,
2013-08-19 10:33:00,86.2,73.9,29.97,East,95,4.0,15.0,67,0.00,,,0.00,meteohub,2013-08-19 15:33:00,
2013-08-19 10:38:00,86.5,73.4,29.96,East,96,12.0,15.0,65,0.00,,,0.00,meteohub,2013-08-19 15:38:00,
2013-08-19 10:43:00,86.4,73.6,29.96,East,89,5.0,15.0,66,0.00,,,0.00,meteohub,2013-08-19 15:43:00,
2013-08-19 10:48:00,87.1,72.9,29.96,SE,124,10.0,15.0,63,0.00,,,0.00,meteohub,2013-08-19 15:48:00,
2013-08-19 10:53:00,86.7,73.0,29.96,SE,129,7.0,14.0,64,0.00,,,0.00,meteohub,2013-08-19 15:53:00,
2013-08-19 10:58:00,87.1,73.4,29.96,NE,41,7.0,13.0,64,0.00,,,0.00,meteohub,2013-08-19 15:58:00,
2013-08-19 11:04:00,87.4,72.9,29.96,ENE,62,6.0,13.0,62,0.00,,,0.00,meteohub,2013-08-19 16:04:00,
2013-08-19 11:09:00,87.3,73.6,29.96,ENE,77,6.0,13.0,64,0.00,,,0.00,meteohub,2013-08-19 16:09:00,
2013-08-19 11:14:00,86.7,72.7,29.96,East,90,5.0,12.0,63,0.00,,,0.00,meteohub,2013-08-19 16:14:00,
2013-08-19 11:19:00,86.7,73.0,29.96,ENE,72,6.0,13.0,64,0.00,,,0.00,meteohub,2013-08-19 16:19:00,
2013-08-19 11:24:00,87.1,72.9,29.96,East,81,5.0,15.0,63,0.00,,,0.00,meteohub,2013-08-19 16:24:00,
2013-08-19 11:29:00,87.4,72.9,29.96,ENE,76,14.0,15.0,62,0.00,,,0.00,meteohub,2013-08-19 16:29:00,
2013-08-19 11:34:00,87.8,72.1,29.96,East,86,8.0,15.0,60,0.00,,,0.00,meteohub,2013-08-19 16:34:00,
2013-08-19 11:39:00,88.3,71.2,29.96,East,83,8.0,16.0,57,0.00,,,0.00,meteohub,2013-08-19 16:39:00,
2013-08-19 11:44:00,89.1,69.1,29.96,ENE,72,8.0,16.0,52,0.00,,,0.00,meteohub,2013-08-19 16:44:00,
2013-08-19 11:49:00,89.1,69.6,29.96,ENE,69,6.0,16.0,53,0.00,,,0.00,meteohub,2013-08-19 16:49:00,
2013-08-19 11:54:00,89.8,70.3,29.96,East,79,9.0,16.0,53,0.00,,,0.00,meteohub,2013-08-19 16:54:00,
2013-08-19 11:59:00,89.6,71.2,29.96,East,89,9.0,16.0,55,0.00,,,0.00,meteohub,2013-08-19 16:59:00,
2013-08-19 12:04:00,89.1,71.8,29.96,East,101,7.0,17.0,57,0.00,,,0.00,meteohub,2013-08-19 17:04:00,
2013-08-19 12:10:00,89.2,71.4,29.96,East,90,6.0,17.0,56,0.00,,,0.00,meteohub,2013-08-19 17:10:00,
2013-08-19 12:15:00,90.0,71.1,29.95,ENE,77,5.0,17.0,54,0.00,,,0.00,meteohub,2013-08-19 17:15:00,
2013-08-19 12:20:00,90.1,71.8,29.95,ENE,68,10.0,15.0,55,0.00,,,0.00,meteohub,2013-08-19 17:20:00,
2013-08-19 12:25:00,89.8,71.4,29.95,SE,130,6.0,17.0,55,0.00,,,0.00,meteohub,2013-08-19 17:25:00,
2013-08-19 12:30:00,89.8,72.0,29.94,NE,47,8.0,17.0,56,0.00,,,0.00,meteohub,2013-08-19 17:30:00,
2013-08-19 12:35:00,90.1,69.6,29.94,ENE,65,6.0,17.0,51,0.00,,,0.00,meteohub,2013-08-19 17:35:00,
2013-08-19 12:40:00,90.1,68.4,29.94,ENE,65,13.0,16.0,49,0.00,,,0.00,meteohub,2013-08-19 17:40:00,
2013-08-19 12:45:00,90.1,68.9,29.94,East,97,9.0,15.0,50,0.00,,,0.00,meteohub,2013-08-19 17:45:00,
2013-08-19 12:50:00,90.7,69.4,29.94,ESE,113,9.0,18.0,50,0.00,,,0.00,meteohub,2013-08-19 17:50:00,
2013-08-19 12:55:00,90.9,69.1,29.94,East,90,6.0,18.0,49,0.00,,,0.00,meteohub,2013-08-19 17:55:00,
2013-08-19 13:00:00,91.0,67.5,29.94,East,80,13.0,18.0,46,0.00,,,0.00,meteohub,2013-08-19 18:00:00,
2013-08-19 13:05:00,91.2,67.5,29.94,East,79,9.0,15.0,46,0.00,,,0.00,meteohub,2013-08-19 18:05:00,
2013-08-19 13:10:00,91.8,66.7,29.94,ESE,108,9.0,21.0,44,0.00,,,0.00,meteohub,2013-08-19 18:10:00,
2013-08-19 13:15:00,92.1,69.6,29.94,ESE,103,6.0,18.0,48,0.00,,,0.00,meteohub,2013-08-19 18:15:00,
2013-08-19 13:20:00,91.8,68.0,29.94,ESE,110,10.0,18.0,46,0.00,,,0.00,meteohub,2013-08-19 18:20:00,
2013-08-19 13:25:00,91.6,69.8,29.93,East,93,11.0,18.0,49,0.00,,,0.00,meteohub,2013-08-19 18:25:00,
2013-08-19 13:30:00,91.8,69.3,29.93,ESE,120,13.0,18.0,48,0.00,,,0.00,meteohub,2013-08-19 18:30:00,
2013-08-19 13:35:00,91.6,67.3,29.93,ENE,68,13.0,18.0,45,0.00,,,0.00,meteohub,2013-08-19 18:35:00,
2013-08-19 13:40:00,91.2,68.7,29.93,SSE,153,11.0,18.0,48,0.00,,,0.00,meteohub,2013-08-19 18:40:00,
2013-08-19 13:45:00,91.2,68.2,29.93,ESE,105,12.0,18.0,47,0.00,,,0.00,meteohub,2013-08-19 18:45:00,
2013-08-19 13:51:00,91.4,69.6,29.92,East,96,12.0,18.0,49,0.00,,,0.00,meteohub,2013-08-19 18:51:00,
2013-08-19 13:56:00,91.8,66.7,29.92,East,94,11.0,16.0,44,0.00,,,0.00,meteohub,2013-08-19 18:56:00,
2013-08-19 14:01:00,92.1,67.6,29.92,East,100,9.0,14.0,45,0.00,,,0.00,meteohub,2013-08-19 19:01:00,
2013-08-19 14:06:00,92.3,68.5,29.92,East,81,12.0,16.0,46,0.00,,,0.00,meteohub,2013-08-19 19:06:00,
2013-08-19 14:11:00,92.3,66.6,29.92,ESE,122,10.0,16.0,43,0.00,,,0.00,meteohub,2013-08-19 19:11:00,
2013-08-19 14:16:00,92.7,68.2,29.91,ENE,76,14.0,17.0,45,0.00,,,0.00,meteohub,2013-08-19 19:16:00,
2013-08-19 14:21:00,92.3,69.1,29.91,East,95,14.0,20.0,47,0.00,,,0.00,meteohub,2013-08-19 19:21:00,
2013-08-19 14:26:00,92.1,68.9,29.91,NE,54,12.0,20.0,47,0.00,,,0.00,meteohub,2013-08-19 19:26:00,
2013-08-19 14:31:00,92.1,67.1,29.91,East,84,12.0,16.0,44,0.00,,,0.00,meteohub,2013-08-19 19:31:00,
2013-08-19 14:36:00,92.7,68.2,29.91,SE,133,8.0,16.0,45,0.00,,,0.00,meteohub,2013-08-19 19:36:00,
2013-08-19 14:41:00,92.7,66.9,29.91,East,79,13.0,18.0,43,0.00,,,0.00,meteohub,2013-08-19 19:41:00,
2013-08-19 14:46:00,92.1,67.6,29.90,ENE,62,12.0,18.0,45,0.00,,,0.00,meteohub,2013-08-19 19:46:00,
2013-08-19 14:51:00,91.8,68.0,29.90,ESE,104,12.0,18.0,46,0.00,,,0.00,meteohub,2013-08-19 19:51:00,
2013-08-19 14:56:00,91.9,68.2,29.90,SE,127,6.0,18.0,46,0.00,,,0.00,meteohub,2013-08-19 19:56:00,
2013-08-19 15:01:00,92.1,68.9,29.90,ENE,72,4.0,18.0,47,0.00,,,0.00,meteohub,2013-08-19 20:01:00,
2013-08-19 15:06:00,92.5,68.7,29.89,ESE,106,7.0,18.0,46,0.00,,,0.00,meteohub,2013-08-19 20:06:00,
2013-08-19 15:11:00,92.1,68.4,29.89,ESE,118,7.0,18.0,46,0.00,,,0.00,meteohub,2013-08-19 20:11:00,
2013-08-19 15:16:00,92.1,68.9,29.88,SE,136,11.0,17.0,47,0.00,,,0.00,meteohub,2013-08-19 20:16:00,
2013-08-19 15:21:00,92.7,70.2,29.88,East,79,11.0,18.0,48,0.00,,,0.00,meteohub,2013-08-19 20:21:00,
2013-08-19 15:26:00,92.5,69.3,29.88,ESE,121,16.0,18.0,47,0.00,,,0.00,meteohub,2013-08-19 20:26:00,
2013-08-19 15:31:00,92.1,68.4,29.88,ESE,122,6.0,20.0,46,0.00,,,0.00,meteohub,2013-08-19 20:31:00,
2013-08-19 15:36:00,92.5,68.7,29.88,SE,129,10.0,20.0,46,0.00,,,0.00,meteohub,2013-08-19 20:36:00,
2013-08-19 15:41:00,92.1,68.4,29.87,ESE,109,8.0,20.0,46,0.00,,,0.00,meteohub,2013-08-19 20:41:00,
2013-08-19 15:46:00,92.3,67.3,29.87,ENE,75,10.0,19.0,44,0.00,,,0.00,meteohub,2013-08-19 20:46:00,
2013-08-19 15:51:00,92.1,67.6,29.87,ENE,78,7.0,19.0,45,0.00,,,0.00,meteohub,2013-08-19 20:51:00,
2013-08-19 15:57:00,92.7,68.2,29.87,East,98,11.0,16.0,45,0.00,,,0.00,meteohub,2013-08-19 20:57:00,
2013-08-19 16:02:00,92.8,69.1,29.87,ESE,110,12.0,16.0,46,0.00,,,0.00,meteohub,2013-08-19 21:02:00,
2013-08-19 16:07:00,92.8,69.1,29.87,East,89,12.0,16.0,46,0.00,,,0.00,meteohub,2013-08-19 21:07:00,
2013-08-19 16:12:00,92.5,68.0,29.86,SSW,203,9.0,18.0,45,0.00,,,0.00,meteohub,2013-08-19 21:12:00,
2013-08-19 16:17:00,92.5,69.3,29.86,East,96,13.0,18.0,47,0.00,,,0.00,meteohub,2013-08-19 21:17:00,
2013-08-19 16:22:00,92.3,69.1,29.86,East,79,7.0,18.0,47,0.00,,,0.00,meteohub,2013-08-19 21:22:00,
2013-08-19 16:27:00,92.5,70.0,29.86,East,85,11.0,18.0,48,0.00,,,0.00,meteohub,2013-08-19 21:27:00,
2013-08-19 16:32:00,92.3,69.8,29.86,East,87,12.0,18.0,48,0.00,,,0.00,meteohub,2013-08-19 21:32:00,
2013-08-19 16:37:00,91.6,70.9,29.86,ESE,115,10.0,20.0,51,0.00,,,0.00,meteohub,2013-08-19 21:37:00,
2013-08-19 16:42:00,91.4,70.7,29.86,ENE,65,15.0,20.0,51,0.00,,,0.00,meteohub,2013-08-19 21:42:00,
2013-08-19 16:47:00,91.8,71.1,29.86,ESE,103,9.0,20.0,51,0.00,,,0.00,meteohub,2013-08-19 21:47:00,
2013-08-19 16:52:00,92.1,71.4,29.86,ENE,77,11.0,18.0,51,0.00,,,0.00,meteohub,2013-08-19 21:52:00,
2013-08-19 16:57:00,91.9,71.8,29.86,ESE,106,4.0,18.0,52,0.00,,,0.00,meteohub,2013-08-19 21:57:00,
2013-08-19 17:02:00,91.9,71.8,29.86,ESE,102,6.0,17.0,52,0.00,,,0.00,meteohub,2013-08-19 22:02:00,
2013-08-19 17:07:00,91.9,71.8,29.86,East,97,7.0,17.0,52,0.00,,,0.00,meteohub,2013-08-19 22:07:00,
2013-08-19 17:12:00,91.8,71.6,29.85,ESE,107,14.0,16.0,52,0.00,,,0.00,meteohub,2013-08-19 22:12:00,
2013-08-19 17:22:00,91.4,71.2,29.85,ESE,116,7.0,17.0,52,0.00,,,0.00,meteohub,2013-08-19 22:22:00,
2013-08-19 17:27:00,91.0,70.9,29.85,ESE,103,12.0,17.0,52,0.00,,,0.00,meteohub,2013-08-19 22:27:00,
2013-08-19 17:32:00,90.9,70.9,29.85,ENE,67,10.0,19.0,52,0.00,,,0.00,meteohub,2013-08-19 22:32:00,
2013-08-19 17:37:00,91.2,70.5,29.85,SE,132,10.0,19.0,51,0.00,,,0.00,meteohub,2013-08-19 22:37:00,
2013-08-19 17:42:00,91.4,70.7,29.85,ESE,108,11.0,19.0,51,0.00,,,0.00,meteohub,2013-08-19 22:42:00,
2013-08-19 17:47:00,91.0,69.3,29.85,East,84,7.0,18.0,49,0.00,,,0.00,meteohub,2013-08-19 22:47:00,
2013-08-19 17:52:00,91.0,70.3,29.85,SE,146,10.0,18.0,51,0.00,,,0.00,meteohub,2013-08-19 22:52:00,
2013-08-19 17:57:00,91.0,70.3,29.85,East,82,8.0,18.0,51,0.00,,,0.00,meteohub,2013-08-19 22:57:00,
2013-08-19 18:02:00,90.9,70.9,29.85,NE,49,10.0,17.0,52,0.00,,,0.00,meteohub,2013-08-19 23:02:00,
2013-08-19 18:07:00,90.3,69.1,29.86,ESE,109,15.0,17.0,50,0.00,,,0.00,meteohub,2013-08-19 23:07:00,
2013-08-19 18:12:00,90.3,69.1,29.85,ENE,75,11.0,17.0,50,0.00,,,0.00,meteohub,2013-08-19 23:12:00,
2013-08-19 18:17:00,90.1,69.6,29.85,ESE,103,15.0,19.0,51,0.00,,,0.00,meteohub,2013-08-19 23:17:00,
2013-08-19 18:22:00,90.1,69.6,29.86,ESE,123,12.0,19.0,51,0.00,,,0.00,meteohub,2013-08-19 23:22:00,
2013-08-19 18:27:00,90.0,70.0,29.86,East,80,8.0,19.0,52,0.00,,,0.00,meteohub,2013-08-19 23:27:00,
2013-08-19 18:32:00,90.0,70.5,29.86,ENE,61,6.0,18.0,53,0.00,,,0.00,meteohub,2013-08-19 23:32:00,
2013-08-19 18:37:00,89.6,71.2,29.85,ESE,108,13.0,16.0,55,0.00,,,0.00,meteohub,2013-08-19 23:37:00,
2013-08-19 18:42:00,89.4,70.5,29.85,NE,56,6.0,16.0,54,0.00,,,0.00,meteohub,2013-08-19 23:42:00,
2013-08-19 18:47:00,89.2,69.8,29.86,East,94,12.0,16.0,53,0.00,,,0.00,meteohub,2013-08-19 23:47:00,
2013-08-19 18:52:00,89.1,71.8,29.86,East,87,12.0,17.0,57,0.00,,,0.00,meteohub,2013-08-19 23:52:00,
2013-08-19 18:58:00,89.1,71.2,29.86,ENE,72,11.0,17.0,56,0.00,,,0.00,meteohub,2013-08-19 23:58:00,
2013-08-19 19:03:00,88.9,72.1,29.86,SE,129,12.0,17.0,58,0.00,,,0.00,meteohub,2013-08-20 00:03:00,
2013-08-19 19:08:00,88.5,71.8,29.86,East,90,13.0,16.0,58,0.00,,,0.00,meteohub,2013-08-20 00:08:00,
2013-08-19 19:13:00,88.3,71.6,29.86,East,82,11.0,18.0,58,0.00,,,0.00,meteohub,2013-08-20 00:13:00,
2013-08-19 19:18:00,88.0,71.8,29.86,ESE,117,10.0,18.0,59,0.00,,,0.00,meteohub,2013-08-20 00:18:00,
2013-08-19 19:23:00,87.6,72.5,29.86,East,88,13.0,18.0,61,0.00,,,0.00,meteohub,2013-08-20 00:23:00,
2013-08-19 19:28:00,87.6,73.0,29.86,ESE,117,7.0,17.0,62,0.00,,,0.00,meteohub,2013-08-20 00:28:00,
2013-08-19 19:33:00,87.4,71.8,29.86,East,96,10.0,17.0,60,0.00,,,0.00,meteohub,2013-08-20 00:33:00,
2013-08-19 19:38:00,87.3,73.6,29.86,ESE,106,7.0,15.0,64,0.00,,,0.00,meteohub,2013-08-20 00:38:00,
2013-08-19 19:43:00,86.9,72.9,29.86,SE,124,9.0,16.0,63,0.00,,,0.00,meteohub,2013-08-20 00:43:00,
2013-08-19 19:48:00,86.7,72.7,29.86,East,101,13.0,16.0,63,0.00,,,0.00,meteohub,2013-08-20 00:48:00,
2013-08-19 19:53:00,86.5,72.9,29.86,East,98,9.0,15.0,64,0.00,,,0.00,meteohub,2013-08-20 00:53:00,
2013-08-19 19:58:00,86.4,73.2,29.86,East,86,8.0,15.0,65,0.00,,,0.00,meteohub,2013-08-20 00:58:00,
2013-08-19 20:03:00,86.2,72.5,29.86,East,100,6.0,15.0,64,0.00,,,0.00,meteohub,2013-08-20 01:03:00,
2013-08-19 20:09:00,85.8,73.6,29.86,ESE,117,12.0,14.0,67,0.00,,,0.00,meteohub,2013-08-20 01:09:00,
2013-08-19 20:14:00,85.6,73.0,29.86,East,81,8.0,16.0,66,0.00,,,0.00,meteohub,2013-08-20 01:14:00,
2013-08-19 20:19:00,85.5,73.8,29.86,East,99,9.0,16.0,68,0.00,,,0.00,meteohub,2013-08-20 01:19:00,
2013-08-19 20:24:00,85.3,73.6,29.86,East,88,6.0,16.0,68,0.00,,,0.00,meteohub,2013-08-20 01:24:00,
2013-08-19 20:29:00,85.3,73.9,29.86,East,86,10.0,14.0,69,0.00,,,0.00,meteohub,2013-08-20 01:29:00,
2013-08-19 20:34:00,84.9,73.6,29.86,ESE,109,9.0,13.0,69,0.00,,,0.00,meteohub,2013-08-20 01:34:00,
2013-08-19 20:39:00,84.9,74.5,29.86,ESE,123,8.0,15.0,71,0.00,,,0.00,meteohub,2013-08-20 01:39:00,
2013-08-19 20:44:00,84.7,74.3,29.87,ESE,119,11.0,15.0,71,0.00,,,0.00,meteohub,2013-08-20 01:44:00,
2013-08-19 20:49:00,84.6,74.5,29.87,SE,127,7.0,15.0,72,0.00,,,0.00,meteohub,2013-08-20 01:49:00,
2013-08-19 20:54:00,84.6,74.5,29.87,ESE,109,9.0,13.0,72,0.00,,,0.00,meteohub,2013-08-20 01:54:00,
2013-08-19 20:59:00,84.4,74.3,29.87,ESE,117,6.0,13.0,72,0.00,,,0.00,meteohub,2013-08-20 01:59:00,
2013-08-19 21:04:00,84.4,74.3,29.87,East,94,8.0,15.0,72,0.00,,,0.00,meteohub,2013-08-20 02:04:00,
2013-08-19 21:09:00,84.4,74.8,29.87,East,80,5.0,15.0,73,0.00,,,0.00,meteohub,2013-08-20 02:09:00,
2013-08-19 21:14:00,84.2,75.0,29.88,East,84,7.0,15.0,74,0.00,,,0.00,meteohub,2013-08-20 02:14:00,
2013-08-19 21:19:00,84.0,74.8,29.87,ESE,110,6.0,12.0,74,0.00,,,0.00,meteohub,2013-08-20 02:19:00,
2013-08-19 21:24:00,84.0,74.8,29.88,ESE,115,5.0,13.0,74,0.00,,,0.00,meteohub,2013-08-20 02:24:00,
2013-08-19 21:29:00,83.8,74.7,29.88,ESE,107,5.0,13.0,74,0.00,,,0.00,meteohub,2013-08-20 02:29:00,
2013-08-19 21:34:00,83.8,74.7,29.88,ESE,116,6.0,13.0,74,0.00,,,0.00,meteohub,2013-08-20 02:34:00,
2013-08-19 21:39:00,83.7,74.5,29.88,SE,124,4.0,10.0,74,0.00,,,0.00,meteohub,2013-08-20 02:39:00,
2013-08-19 21:44:00,83.7,74.8,29.88,SE,124,6.0,10.0,75,0.00,,,0.00,meteohub,2013-08-20 02:44:00,
2013-08-19 21:49:00,83.5,74.7,29.88,East,97,4.0,10.0,75,0.00,,,0.00,meteohub,2013-08-20 02:49:00,
2013-08-19 21:54:00,83.5,75.0,29.88,ENE,74,5.0,10.0,76,0.00,,,0.00,meteohub,2013-08-20 02:54:00,
2013-08-19 21:59:00,83.5,75.0,29.88,ESE,120,5.0,8.0,76,0.00,,,0.00,meteohub,2013-08-20 02:59:00,
2013-08-19 22:05:00,83.1,74.8,29.89,East,96,4.0,9.0,76,0.00,,,0.00,meteohub,2013-08-20 03:05:00,
2013-08-19 22:10:00,83.1,75.2,29.89,ESE,114,6.0,9.0,77,0.00,,,0.00,meteohub,2013-08-20 03:10:00,
2013-08-19 22:15:00,83.1,75.2,29.89,ESE,115,7.0,9.0,77,0.00,,,0.00,meteohub,2013-08-20 03:15:00,
2013-08-19 22:20:00,83.1,75.2,29.89,ESE,117,6.0,9.0,77,0.00,,,0.00,meteohub,2013-08-20 03:20:00,
2013-08-19 22:25:00,82.9,75.0,29.89,ESE,121,6.0,9.0,77,0.00,,,0.00,meteohub,2013-08-20 03:25:00,
2013-08-19 22:30:00,82.9,75.0,29.89,ESE,105,6.0,8.0,77,0.00,,,0.00,meteohub,2013-08-20 03:30:00,
2013-08-19 22:35:00,82.8,74.8,29.89,ESE,116,5.0,8.0,77,0.00,,,0.00,meteohub,2013-08-20 03:35:00,
2013-08-19 22:40:00,82.8,74.8,29.89,SE,124,4.0,7.0,77,0.00,,,0.00,meteohub,2013-08-20 03:40:00,
2013-08-19 22:45:00,82.8,75.2,29.89,SE,124,6.0,7.0,78,0.00,,,0.00,meteohub,2013-08-20 03:45:00,
2013-08-19 22:50:00,82.6,75.0,29.89,ESE,104,6.0,8.0,78,0.00,,,0.00,meteohub,2013-08-20 03:50:00,
2013-08-19 22:55:00,82.6,75.0,29.89,East,98,4.0,10.0,78,0.00,,,0.00,meteohub,2013-08-20 03:55:00,
2013-08-19 23:01:00,82.4,74.8,29.89,East,95,3.0,10.0,78,0.00,,,0.00,meteohub,2013-08-20 04:01:00,
2013-08-19 23:02:00,82.4,74.8,29.89,East,101,6.0,10.0,78,0.00,,,0.00,meteohub,2013-08-20 04:02:00,
2013-08-19 23:07:00,82.4,75.2,29.89,ESE,102,7.0,10.0,79,0.00,,,0.00,meteohub,2013-08-20 04:07:00,
2013-08-19 23:12:00,82.2,75.0,29.89,East,96,4.0,8.0,79,0.00,,,0.00,meteohub,2013-08-20 04:12:00,
2013-08-19 23:17:00,82.2,75.0,29.89,SE,124,4.0,8.0,79,0.00,,,0.00,meteohub,2013-08-20 04:17:00,
2013-08-19 23:22:00,82.2,75.0,29.89,ESE,111,4.0,7.0,79,0.00,,,0.00,meteohub,2013-08-20 04:22:00,
2013-08-19 23:27:00,82.2,75.0,29.89,ESE,122,4.0,7.0,79,0.00,,,0.00,meteohub,2013-08-20 04:27:00,
2013-08-19 23:32:00,82.2,75.0,29.89,SE,124,4.0,8.0,79,0.00,,,0.00,meteohub,2013-08-20 04:32:00,
2013-08-19 23:37:00,82.2,75.0,29.89,SE,129,4.0,8.0,79,0.00,,,0.00,meteohub,2013-08-20 04:37:00,
2013-08-19 23:42:00,82.2,75.0,29.89,SE,127,7.0,8.0,79,0.00,,,0.00,meteohub,2013-08-20 04:42:00,
2013-08-19 23:47:00,82.0,74.8,29.89,ESE,110,6.0,8.0,79,0.00,,,0.00,meteohub,2013-08-20 04:47:00,
2013-08-19 23:52:00,82.0,74.8,29.88,ESE,110,6.0,8.0,79,0.00,,,0.00,meteohub,2013-08-20 04:52:00,
2013-08-19 23:57:00,82.0,74.8,29.88,ESE,117,4.0,8.0,79,0.00,,,0.00,meteohub,2013-08-20 04:57:00,